Airfield :
LOGIN :

Register | Disclaimer

   EN    FR    IT 

 










Legend :    VFR   Marginal VFR   IFR   Intensive IFR   Very Intensive IFR
Visi :
Ceiling :
>= 8 km
>= 3000ft
5 to 8 km
1000 to 3000 ft
1500m to 5 km
500 to 1000 ft
800 to 1500m
200 to 500 ft
< 800m
< 200 ft
Symbols :   Thunderstorms  Fog  Heavy snow  Heavy precipitations  Wind > 20 kt
SIGMETs :     Misc.  Thunderstorms  Icing  Turbulence  Mountain Waves  Volcanic Ashes






- Airport Elevation : 1090 ft
- IATA code : CFE


LFLC - Clermont-Ferrand Auvergne

CURRENT METAR :
  • 110430Z AUTO 13009KT 9999 ///TCU 10/07 Q1007 TEMPO 4000 RA BKN014 SCT050TCU

EXPIRED METARs :
  • 110400Z AUTO 10006KT CAVOK 10/08 Q1007 TEMPO 4000 RA BKN014 SCT050TCU
  • 110330Z AUTO 10004KT 070V130 9999 FEW060 BKN170 OVC200 09/07 Q1007 TEMPO 4000 RA BKN014 SCT050TCU
  • 110300Z AUTO VRB03KT 9999 BKN058 OVC150 10/08 Q1008 TEMPO 4000 RA BKN014 SCT050TCU
  • 110230Z AUTO VRB02KT 9999 BKN054 OVC150 10/08 Q1008 TEMPO 4000 RA BKN014 SCT050TCU
  • 110200Z AUTO 19003KT 140V250 CAVOK 10/08 Q1008 TEMPO 4000 RA BKN014 SCT050TCU

TAF TAF LFLC
Valid from the 11 at 00:00 until the 12 at 00:00 UTC


102300Z 1100/1124 18008KT 9999 FEW015 BKN060
PROB40
TEMPO 1102/1108 4000 RA BKN014 SCT050TCU
BECMG 1108/1110 32010KT
TEMPO 1108/1117 2000 SHRA SCT010 BKN030TCU
PROB40
TEMPO 1114/1117 30015G30KT SCT025CB
BECMG 1120/1122 18005KT
ATIS : +33 4 73 62 74 38



MET'MAP, your aeronautical weather chart ! - Copyright ORBIFLY December 2007 - Disclaimer

ORBIFLY MET'MAP TEAM :

Programming & Development : Alexandra Zaïnal
Concept & original design : Baudouin d'Aumeries
Assistance for programming : Marc-Olivier Méhu
Technical & hardware support : Manuel Goepfert

Contact : metmap@orbifly.com




SOURCES & CREDITS :

   NOAA